sensor_id;sensor_type;location;lat;lon;timestamp;pressure;altitude;pressure_sealevel;temperature;humidity
59391;BME280;53405;57.012;40.984;2023-07-29T00:02:06;98937.44;;;21.14;89.29
59391;BME280;53405;57.012;40.984;2023-07-29T00:04:34;98938.28;;;21.04;89.02
59391;BME280;53405;57.012;40.984;2023-07-29T00:07:02;98933.16;;;21.07;88.73
59391;BME280;53405;57.012;40.984;2023-07-29T00:09:29;98928.13;;;20.96;88.47
59391;BME280;53405;57.012;40.984;2023-07-29T00:11:57;98926.44;;;21.20;87.82
59391;BME280;53405;57.012;40.984;2023-07-29T00:14:25;98920.03;;;21.16;88.06
59391;BME280;53405;57.012;40.984;2023-07-29T00:16:53;98932.13;;;21.03;88.59
59391;BME280;53405;57.012;40.984;2023-07-29T00:19:20;98941.72;;;21.09;88.34
59391;BME280;53405;57.012;40.984;2023-07-29T00:21:50;98953.25;;;21.00;89.15
59391;BME280;53405;57.012;40.984;2023-07-29T00:24:18;98943.16;;;20.81;89.92
59391;BME280;53405;57.012;40.984;2023-07-29T00:26:46;98956.25;;;20.88;89.68
59391;BME280;53405;57.012;40.984;2023-07-29T00:29:13;98959.44;;;21.00;88.97
59391;BME280;53405;57.012;40.984;2023-07-29T00:31:41;98951.97;;;20.82;89.55
59391;BME280;53405;57.012;40.984;2023-07-29T00:34:09;98965.34;;;20.87;89.57
59391;BME280;53405;57.012;40.984;2023-07-29T00:36:37;98943.69;;;20.83;89.34
59391;BME280;53405;57.012;40.984;2023-07-29T00:39:05;98954.66;;;20.82;90.10
59391;BME280;53405;57.012;40.984;2023-07-29T00:41:33;98946.09;;;20.74;89.87
59391;BME280;53405;57.012;40.984;2023-07-29T00:44:00;98958.94;;;20.78;89.82
59391;BME280;53405;57.012;40.984;2023-07-29T00:46:33;98945.03;;;20.55;90.30
59391;BME280;53405;57.012;40.984;2023-07-29T00:49:01;98982.47;;;20.65;90.65
59391;BME280;53405;57.012;40.984;2023-07-29T00:51:29;98983.81;;;20.63;90.45
59391;BME280;53405;57.012;40.984;2023-07-29T00:53:57;98985.41;;;20.79;89.58
59391;BME280;53405;57.012;40.984;2023-07-29T00:56:24;98991.00;;;20.83;89.75
59391;BME280;53405;57.012;40.984;2023-07-29T00:58:52;98995.31;;;20.68;90.57
59391;BME280;53405;57.012;40.984;2023-07-29T01:01:30;99003.31;;;20.84;89.81
59391;BME280;53405;57.012;40.984;2023-07-29T01:03:58;99006.78;;;20.84;89.94
59391;BME280;53405;57.012;40.984;2023-07-29T01:06:50;99012.16;;;20.84;89.62
59391;BME280;53405;57.012;40.984;2023-07-29T01:17:56;99028.75;;;20.81;89.77
59391;BME280;53405;57.012;40.984;2023-07-29T01:20:27;99040.78;;;20.79;89.52
59391;BME280;53405;57.012;40.984;2023-07-29T01:22:56;99043.47;;;20.84;90.08
59391;BME280;53405;57.012;40.984;2023-07-29T01:25:23;99038.09;;;20.63;91.46
59391;BME280;53405;57.012;40.984;2023-07-29T01:27:52;99046.41;;;20.72;91.25
59391;BME280;53405;57.012;40.984;2023-07-29T01:30:22;99046.41;;;20.72;90.73
59391;BME280;53405;57.012;40.984;2023-07-29T01:32:54;99041.59;;;20.79;90.45
59391;BME280;53405;57.012;40.984;2023-07-29T01:38:35;99010.00;;;20.61;91.86
59391;BME280;53405;57.012;40.984;2023-07-29T01:40:56;99000.94;;;20.72;91.37
59391;BME280;53405;57.012;40.984;2023-07-29T01:43:24;99004.38;;;20.62;91.41
59391;BME280;53405;57.012;40.984;2023-07-29T01:45:53;98991.84;;;20.73;91.17
59391;BME280;53405;57.012;40.984;2023-07-29T01:48:22;98975.22;;;20.61;91.85
59391;BME280;53405;57.012;40.984;2023-07-29T01:50:50;98958.13;;;20.62;91.98
59391;BME280;53405;57.012;40.984;2023-07-29T01:53:19;98952.25;;;20.65;91.77
59391;BME280;53405;57.012;40.984;2023-07-29T01:55:47;98944.50;;;20.68;91.17
59391;BME280;53405;57.012;40.984;2023-07-29T01:58:15;98942.59;;;20.64;91.19
59391;BME280;53405;57.012;40.984;2023-07-29T02:00:46;98950.38;;;20.50;91.63
59391;BME280;53405;57.012;40.984;2023-07-29T02:03:14;98943.97;;;20.56;91.03
59391;BME280;53405;57.012;40.984;2023-07-29T02:05:42;98960.53;;;20.53;91.83
59391;BME280;53405;57.012;40.984;2023-07-29T02:08:11;98953.03;;;20.45;91.88
59391;BME280;53405;57.012;40.984;2023-07-29T02:10:39;98909.75;;;20.53;91.34
59391;BME280;53405;57.012;40.984;2023-07-29T02:13:07;98873.91;;;20.49;92.40
59391;BME280;53405;57.012;40.984;2023-07-29T02:15:35;98851.97;;;20.42;92.12
59391;BME280;53405;57.012;40.984;2023-07-29T02:18:02;98865.91;;;20.44;91.95
59391;BME280;53405;57.012;40.984;2023-07-29T02:20:31;98890.22;;;20.16;92.94
59391;BME280;53405;57.012;40.984;2023-07-29T02:22:59;98916.97;;;20.06;94.70
59391;BME280;53405;57.012;40.984;2023-07-29T02:25:27;98941.81;;;20.01;94.23
59391;BME280;53405;57.012;40.984;2023-07-29T02:27:54;98950.63;;;20.02;94.65
59391;BME280;53405;57.012;40.984;2023-07-29T02:30:22;98940.75;;;20.08;94.36
59391;BME280;53405;57.012;40.984;2023-07-29T02:32:50;98933.25;;;20.04;95.18
59391;BME280;53405;57.012;40.984;2023-07-29T02:35:18;98915.63;;;19.98;95.77
59391;BME280;53405;57.012;40.984;2023-07-29T02:37:45;98892.13;;;20.11;94.79
59391;BME280;53405;57.012;40.984;2023-07-29T02:40:14;98873.66;;;20.14;94.62
59391;BME280;53405;57.012;40.984;2023-07-29T02:42:41;98861.91;;;20.00;94.67
59391;BME280;53405;57.012;40.984;2023-07-29T02:45:09;98856.81;;;19.88;94.87
59391;BME280;53405;57.012;40.984;2023-07-29T02:47:38;98853.63;;;19.81;95.91
59391;BME280;53405;57.012;40.984;2023-07-29T02:50:06;98842.44;;;19.79;96.09
59391;BME280;53405;57.012;40.984;2023-07-29T02:52:34;98837.09;;;19.84;96.93
59391;BME280;53405;57.012;40.984;2023-07-29T02:55:02;98845.34;;;19.82;96.15
59391;BME280;53405;57.012;40.984;2023-07-29T02:57:30;98832.25;;;19.76;96.37
59391;BME280;53405;57.012;40.984;2023-07-29T02:59:57;98836.78;;;19.70;96.75
59391;BME280;53405;57.012;40.984;2023-07-29T03:02:25;98841.56;;;19.73;97.76
59391;BME280;53405;57.012;40.984;2023-07-29T03:04:53;98836.56;;;19.82;96.11
59391;BME280;53405;57.012;40.984;2023-07-29T03:07:21;98838.94;;;19.78;96.58
59391;BME280;53405;57.012;40.984;2023-07-29T03:09:49;98856.56;;;19.90;95.40
59391;BME280;53405;57.012;40.984;2023-07-29T03:12:17;98849.66;;;19.83;95.22
59391;BME280;53405;57.012;40.984;2023-07-29T03:14:47;98878.47;;;19.81;95.79
59391;BME280;53405;57.012;40.984;2023-07-29T03:17:16;98876.34;;;19.83;96.01
59391;BME280;53405;57.012;40.984;2023-07-29T03:19:43;98885.16;;;19.94;95.78
59391;BME280;53405;57.012;40.984;2023-07-29T03:22:11;98886.50;;;19.97;94.89
59391;BME280;53405;57.012;40.984;2023-07-29T03:24:39;98891.03;;;19.91;95.48
59391;BME280;53405;57.012;40.984;2023-07-29T03:27:07;98893.47;;;19.98;95.32
59391;BME280;53405;57.012;40.984;2023-07-29T03:29:37;98890.25;;;20.11;94.02
59391;BME280;53405;57.012;40.984;2023-07-29T03:32:04;98879.53;;;19.91;94.20
59391;BME280;53405;57.012;40.984;2023-07-29T03:34:32;98900.66;;;19.97;94.52
59391;BME280;53405;57.012;40.984;2023-07-29T03:37:00;98894.78;;;20.00;94.21
59391;BME280;53405;57.012;40.984;2023-07-29T03:39:28;98885.16;;;20.04;94.07
59391;BME280;53405;57.012;40.984;2023-07-29T03:41:56;98884.38;;;20.04;93.38
59391;BME280;53405;57.012;40.984;2023-07-29T03:44:24;98878.22;;;20.09;92.74
59391;BME280;53405;57.012;40.984;2023-07-29T03:46:53;98885.72;;;19.96;93.46
59391;BME280;53405;57.012;40.984;2023-07-29T03:49:20;98904.41;;;20.07;93.05
59391;BME280;53405;57.012;40.984;2023-07-29T03:51:48;98922.84;;;20.08;93.23
59391;BME280;53405;57.012;40.984;2023-07-29T03:54:16;98936.19;;;20.13;92.62
59391;BME280;53405;57.012;40.984;2023-07-29T03:56:43;98935.94;;;20.15;93.09
59391;BME280;53405;57.012;40.984;2023-07-29T03:59:11;98919.91;;;20.15;93.60
59391;BME280;53405;57.012;40.984;2023-07-29T04:01:38;98929.00;;;20.09;92.81
59391;BME280;53405;57.012;40.984;2023-07-29T04:04:07;98935.66;;;19.96;93.48
59391;BME280;53405;57.012;40.984;2023-07-29T04:06:35;98930.84;;;19.88;93.77
59391;BME280;53405;57.012;40.984;2023-07-29T04:09:03;98934.59;;;19.97;93.98
59391;BME280;53405;57.012;40.984;2023-07-29T04:11:31;98936.47;;;19.96;93.74
59391;BME280;53405;57.012;40.984;2023-07-29T04:13:59;98926.31;;;20.03;93.56
59391;BME280;53405;57.012;40.984;2023-07-29T04:16:27;98927.09;;;19.99;93.34
59391;BME280;53405;57.012;40.984;2023-07-29T04:18:55;98920.69;;;20.05;92.66
59391;BME280;53405;57.012;40.984;2023-07-29T04:21:23;98922.03;;;19.97;92.85
59391;BME280;53405;57.012;40.984;2023-07-29T04:23:51;98920.97;;;19.93;93.51
59391;BME280;53405;57.012;40.984;2023-07-29T04:26:19;98935.13;;;19.94;94.52
59391;BME280;53405;57.012;40.984;2023-07-29T04:28:47;98942.34;;;19.98;93.90
59391;BME280;53405;57.012;40.984;2023-07-29T04:31:15;98931.91;;;19.97;93.38
59391;BME280;53405;57.012;40.984;2023-07-29T04:33:42;98934.59;;;19.92;93.42
59391;BME280;53405;57.012;40.984;2023-07-29T04:36:10;98926.25;;;19.73;95.24
59391;BME280;53405;57.012;40.984;2023-07-29T04:38:39;98897.69;;;19.78;94.47
59391;BME280;53405;57.012;40.984;2023-07-29T04:41:07;98838.66;;;19.75;95.72
59391;BME280;53405;57.012;40.984;2023-07-29T04:43:36;98807.69;;;19.84;94.23
59391;BME280;53405;57.012;40.984;2023-07-29T04:46:06;98835.97;;;19.75;94.25
59391;BME280;53405;57.012;40.984;2023-07-29T04:48:35;98876.56;;;19.72;95.11
59391;BME280;53405;57.012;40.984;2023-07-29T04:51:02;98888.28;;;19.65;95.60
59391;BME280;53405;57.012;40.984;2023-07-29T04:53:30;98905.16;;;19.71;96.14
59391;BME280;53405;57.012;40.984;2023-07-29T04:55:59;98908.13;;;19.85;96.68
59391;BME280;53405;57.012;40.984;2023-07-29T04:58:26;98906.25;;;19.85;96.46
59391;BME280;53405;57.012;40.984;2023-07-29T05:00:58;98896.38;;;19.91;95.67
59391;BME280;53405;57.012;40.984;2023-07-29T05:03:26;98874.75;;;19.98;95.32
59391;BME280;53405;57.012;40.984;2023-07-29T05:05:54;98890.22;;;19.96;95.21
59391;BME280;53405;57.012;40.984;2023-07-29T05:08:23;98889.44;;;20.00;94.71
59391;BME280;53405;57.012;40.984;2023-07-29T05:10:52;98872.88;;;20.09;94.52
59391;BME280;53405;57.012;40.984;2023-07-29T05:13:21;98862.47;;;20.12;94.11
59391;BME280;53405;57.012;40.984;2023-07-29T05:15:49;98876.59;;;20.13;94.63
59391;BME280;53405;57.012;40.984;2023-07-29T05:18:17;98872.34;;;20.22;93.96
59391;BME280;53405;57.012;40.984;2023-07-29T05:20:46;98862.97;;;20.19;94.24
59391;BME280;53405;57.012;40.984;2023-07-29T05:23:14;98861.09;;;20.25;93.53
59391;BME280;53405;57.012;40.984;2023-07-29T05:25:42;98868.84;;;20.27;93.42
59391;BME280;53405;57.012;40.984;2023-07-29T05:28:10;98861.63;;;20.27;93.28
59391;BME280;53405;57.012;40.984;2023-07-29T05:30:37;98858.44;;;20.20;92.96
59391;BME280;53405;57.012;40.984;2023-07-29T05:33:07;98855.25;;;20.23;93.45
59391;BME280;53405;57.012;40.984;2023-07-29T05:35:36;98842.41;;;20.15;93.64
59391;BME280;53405;57.012;40.984;2023-07-29T05:38:04;98846.69;;;20.06;94.02
59391;BME280;53405;57.012;40.984;2023-07-29T05:40:34;98841.84;;;20.18;92.32
59391;BME280;53405;57.012;40.984;2023-07-29T05:43:02;98850.44;;;20.20;93.49
59391;BME280;53405;57.012;40.984;2023-07-29T05:45:30;98845.34;;;20.34;92.91
59391;BME280;53405;57.012;40.984;2023-07-29T05:47:58;98857.63;;;20.35;92.28
59391;BME280;53405;57.012;40.984;2023-07-29T05:50:26;98859.75;;;20.33;92.12
59391;BME280;53405;57.012;40.984;2023-07-29T05:52:53;98863.78;;;20.10;92.76
59391;BME280;53405;57.012;40.984;2023-07-29T05:55:22;98861.66;;;20.22;93.23
59391;BME280;53405;57.012;40.984;2023-07-29T05:57:50;98852.28;;;20.19;92.19
59391;BME280;53405;57.012;40.984;2023-07-29T06:00:18;98854.69;;;20.16;92.99
59391;BME280;53405;57.012;40.984;2023-07-29T06:02:46;98848.81;;;20.24;92.95
59391;BME280;53405;57.012;40.984;2023-07-29T06:05:19;98844.00;;;20.21;93.26
59391;BME280;53405;57.012;40.984;2023-07-29T06:07:46;98833.53;;;20.40;92.44
59391;BME280;53405;57.012;40.984;2023-07-29T06:10:16;98837.56;;;20.37;91.95
59391;BME280;53405;57.012;40.984;2023-07-29T06:12:48;98836.50;;;20.28;92.57
59391;BME280;53405;57.012;40.984;2023-07-29T06:15:15;98837.56;;;20.37;91.98
59391;BME280;53405;57.012;40.984;2023-07-29T06:17:43;98836.53;;;20.23;92.71
59391;BME280;53405;57.012;40.984;2023-07-29T06:20:11;98838.91;;;20.30;93.07
59391;BME280;53405;57.012;40.984;2023-07-29T06:22:40;98835.44;;;20.24;93.41
59391;BME280;53405;57.012;40.984;2023-07-29T06:25:08;98834.66;;;20.34;92.68
59391;BME280;53405;57.012;40.984;2023-07-29T06:27:36;98820.97;;;20.35;92.27
59391;BME280;53405;57.012;40.984;2023-07-29T06:30:04;98826.91;;;20.32;93.09
59391;BME280;53405;57.012;40.984;2023-07-29T06:32:33;98815.34;;;20.47;92.42
59391;BME280;53405;57.012;40.984;2023-07-29T06:35:01;98833.22;;;20.62;91.55
59391;BME280;53405;57.012;40.984;2023-07-29T06:37:30;98815.84;;;20.60;91.71
59391;BME280;53405;57.012;40.984;2023-07-29T06:39:57;98811.31;;;20.65;91.23
59391;BME280;53405;57.012;40.984;2023-07-29T06:42:25;98800.84;;;20.64;91.12
59391;BME280;53405;57.012;40.984;2023-07-29T06:44:53;98793.66;;;20.59;91.00
59391;BME280;53405;57.012;40.984;2023-07-29T06:47:20;98790.47;;;20.67;90.93
59391;BME280;53405;57.012;40.984;2023-07-29T06:49:48;98788.81;;;20.71;90.39
59391;BME280;53405;57.012;40.984;2023-07-29T06:52:15;98785.88;;;20.78;90.57
59391;BME280;53405;57.012;40.984;2023-07-29T06:54:44;98784.50;;;20.81;89.88
59391;BME280;53405;57.012;40.984;2023-07-29T06:57:12;98793.88;;;20.83;89.90
59391;BME280;53405;57.012;40.984;2023-07-29T06:59:40;98779.94;;;20.86;90.29
59391;BME280;53405;57.012;40.984;2023-07-29T07:02:07;98774.63;;;20.81;90.29
59391;BME280;53405;57.012;40.984;2023-07-29T07:04:35;98776.00;;;20.73;90.77
59391;BME280;53405;57.012;40.984;2023-07-29T07:07:02;98771.41;;;20.79;90.32
59391;BME280;53405;57.012;40.984;2023-07-29T07:09:30;98768.53;;;20.70;90.66
59391;BME280;53405;57.012;40.984;2023-07-29T07:11:58;98777.84;;;20.73;91.00
59391;BME280;53405;57.012;40.984;2023-07-29T07:14:25;98782.44;;;20.67;91.57
59391;BME280;53405;57.012;40.984;2023-07-29T07:16:53;98773.31;;;20.68;91.12
59391;BME280;53405;57.012;40.984;2023-07-29T07:19:21;98773.88;;;20.60;91.56
59391;BME280;53405;57.012;40.984;2023-07-29T07:21:48;98772.50;;;20.73;92.06
59391;BME280;53405;57.012;40.984;2023-07-29T07:24:16;98770.38;;;20.70;91.88
59391;BME280;53405;57.012;40.984;2023-07-29T07:26:43;98769.53;;;20.85;91.25
59391;BME280;53405;57.012;40.984;2023-07-29T07:29:12;98772.72;;;20.87;91.10
59391;BME280;53405;57.012;40.984;2023-07-29T07:31:39;98775.63;;;20.90;90.85
59391;BME280;53405;57.012;40.984;2023-07-29T07:34:07;98778.31;;;20.90;90.87
59391;BME280;53405;57.012;40.984;2023-07-29T07:36:35;98794.34;;;20.96;91.46
59391;BME280;53405;57.012;40.984;2023-07-29T07:39:03;98787.63;;;21.03;90.24
59391;BME280;53405;57.012;40.984;2023-07-29T07:41:31;98795.59;;;21.14;90.04
59391;BME280;53405;57.012;40.984;2023-07-29T07:43:59;98790.75;;;21.16;89.84
59391;BME280;53405;57.012;40.984;2023-07-29T07:46:28;98798.69;;;21.31;88.93
59391;BME280;53405;57.012;40.984;2023-07-29T07:48:56;98811.53;;;21.34;88.95
59391;BME280;53405;57.012;40.984;2023-07-29T07:51:24;98804.63;;;21.23;89.12
59391;BME280;53405;57.012;40.984;2023-07-29T07:53:52;98809.72;;;21.24;89.35
59391;BME280;53405;57.012;40.984;2023-07-29T07:56:20;98791.84;;;21.09;90.24
59391;BME280;53405;57.012;40.984;2023-07-29T07:58:47;98805.47;;;21.18;90.34
59391;BME280;53405;57.012;40.984;2023-07-29T08:01:15;98801.44;;;21.21;89.54
59391;BME280;53405;57.012;40.984;2023-07-29T08:03:42;98806.00;;;21.15;90.13
59391;BME280;53405;57.012;40.984;2023-07-29T08:06:10;98804.34;;;21.24;88.94
59391;BME280;53405;57.012;40.984;2023-07-29T08:08:37;98797.06;;;21.35;88.69
59391;BME280;53405;57.012;40.984;2023-07-29T08:11:06;98796.00;;;21.31;89.17
59391;BME280;53405;57.012;40.984;2023-07-29T08:13:33;98785.25;;;21.36;88.41
59391;BME280;53405;57.012;40.984;2023-07-29T08:16:01;98779.31;;;21.50;89.25
59391;BME280;53405;57.012;40.984;2023-07-29T08:18:29;98787.81;;;21.57;88.30
59391;BME280;53405;57.012;40.984;2023-07-29T08:20:58;98783.84;;;21.54;87.64
59391;BME280;53405;57.012;40.984;2023-07-29T08:23:26;98777.09;;;21.57;88.43
59391;BME280;53405;57.012;40.984;2023-07-29T08:25:56;98777.28;;;21.71;88.28
59391;BME280;53405;57.012;40.984;2023-07-29T08:30:58;98752.66;;;21.69;86.65
59391;BME280;53405;57.012;40.984;2023-07-29T08:33:26;98755.56;;;22.01;86.21
59391;BME280;53405;57.012;40.984;2023-07-29T08:35:54;98736.47;;;22.08;84.97
59391;BME280;53405;57.012;40.984;2023-07-29T08:38:25;98767.66;;;22.52;83.88
59391;BME280;53405;57.012;40.984;2023-07-29T08:41:04;98766.50;;;22.59;82.07
59391;BME280;53405;57.012;40.984;2023-07-29T08:43:32;98764.56;;;22.64;82.68
59391;BME280;53405;57.012;40.984;2023-07-29T08:46:01;98760.50;;;22.67;82.49
59391;BME280;53405;57.012;40.984;2023-07-29T08:48:34;98764.31;;;22.61;83.12
59391;BME280;53405;57.012;40.984;2023-07-29T08:51:05;98764.03;;;22.62;82.72
59391;BME280;53405;57.012;40.984;2023-07-29T08:53:34;98763.31;;;22.57;83.24
59391;BME280;53405;57.012;40.984;2023-07-29T08:56:04;98751.16;;;22.40;83.35
59391;BME280;53405;57.012;40.984;2023-07-29T08:58:33;98764.91;;;22.33;83.46
59391;BME280;53405;57.012;40.984;2023-07-29T09:01:08;98755.63;;;22.20;83.58
59391;BME280;53405;57.012;40.984;2023-07-29T09:03:36;98743.31;;;22.19;83.69
59391;BME280;53405;57.012;40.984;2023-07-29T09:06:09;98752.69;;;22.22;83.44
59391;BME280;53405;57.012;40.984;2023-07-29T09:08:37;98749.44;;;22.49;82.58
59391;BME280;53405;57.012;40.984;2023-07-29T09:11:07;98752.97;;;22.69;81.40
59391;BME280;53405;57.012;40.984;2023-07-29T09:13:35;98744.50;;;23.00;80.92
59391;BME280;53405;57.012;40.984;2023-07-29T09:16:04;98743.22;;;23.16;79.95
59391;BME280;53405;57.012;40.984;2023-07-29T09:18:31;98763.09;;;23.15;79.74
59391;BME280;53405;57.012;40.984;2023-07-29T09:20:59;98774.22;;;23.03;80.65
59391;BME280;53405;57.012;40.984;2023-07-29T09:23:43;98780.00;;;22.72;80.82
59391;BME280;53405;57.012;40.984;2023-07-29T09:26:11;98782.22;;;22.89;80.11
59391;BME280;53405;57.012;40.984;2023-07-29T09:28:40;98775.72;;;22.96;80.08
59391;BME280;53405;57.012;40.984;2023-07-29T09:31:18;98781.00;;;23.01;80.28
59391;BME280;53405;57.012;40.984;2023-07-29T09:33:56;98773.53;;;22.98;80.08
59391;BME280;53405;57.012;40.984;2023-07-29T09:36:26;98782.41;;;23.17;79.62
59391;BME280;53405;57.012;40.984;2023-07-29T09:38:54;98783.72;;;23.20;78.89
59391;BME280;53405;57.012;40.984;2023-07-29T09:41:25;98791.84;;;23.15;78.87
59391;BME280;53405;57.012;40.984;2023-07-29T09:43:59;98792.81;;;23.00;79.53
59391;BME280;53405;57.012;40.984;2023-07-29T09:46:36;98790.97;;;22.76;80.06
59391;BME280;53405;57.012;40.984;2023-07-29T09:49:06;98793.00;;;22.84;80.28
59391;BME280;53405;57.012;40.984;2023-07-29T09:51:38;98805.59;;;23.08;80.25
59391;BME280;53405;57.012;40.984;2023-07-29T09:54:07;98797.44;;;23.18;79.62
59391;BME280;53405;57.012;40.984;2023-07-29T09:56:39;98800.41;;;23.17;79.89
59391;BME280;53405;57.012;40.984;2023-07-29T09:59:10;98802.84;;;22.94;80.37
59391;BME280;53405;57.012;40.984;2023-07-29T10:01:39;98785.81;;;22.80;80.38
59391;BME280;53405;57.012;40.984;2023-07-29T10:04:09;98815.41;;;22.74;81.14
59391;BME280;53405;57.012;40.984;2023-07-29T10:06:39;98819.47;;;22.72;81.30
59391;BME280;53405;57.012;40.984;2023-07-29T10:09:11;98820.22;;;22.53;81.59
59391;BME280;53405;57.012;40.984;2023-07-29T10:11:39;98820.31;;;22.43;82.43
59391;BME280;53405;57.012;40.984;2023-07-29T10:14:07;98843.25;;;22.25;83.31
59391;BME280;53405;57.012;40.984;2023-07-29T10:16:40;98849.44;;;21.91;84.72
59391;BME280;53405;57.012;40.984;2023-07-29T10:19:09;98844.00;;;22.01;84.01
59391;BME280;53405;57.012;40.984;2023-07-29T10:21:39;98838.03;;;21.75;84.14
59391;BME280;53405;57.012;40.984;2023-07-29T10:24:16;98826.25;;;21.37;85.83
59391;BME280;53405;57.012;40.984;2023-07-29T10:26:46;98866.59;;;21.56;85.38
59391;BME280;53405;57.012;40.984;2023-07-29T10:29:19;98874.13;;;21.43;85.24
59391;BME280;53405;57.012;40.984;2023-07-29T10:31:48;98880.84;;;21.36;85.91
59391;BME280;53405;57.012;40.984;2023-07-29T10:34:20;98882.25;;;21.23;86.55
59391;BME280;53405;57.012;40.984;2023-07-29T10:36:51;98886.03;;;21.17;86.75
59391;BME280;53405;57.012;40.984;2023-07-29T10:39:20;98889.31;;;21.03;87.10
59391;BME280;53405;57.012;40.984;2023-07-29T10:42:01;98891.78;;;20.79;88.88
59391;BME280;53405;57.012;40.984;2023-07-29T10:44:54;98894.69;;;20.83;88.11
59391;BME280;53405;57.012;40.984;2023-07-29T10:47:28;98885.91;;;20.77;87.16
59391;BME280;53405;57.012;40.984;2023-07-29T10:49:58;98884.31;;;20.71;88.22
59391;BME280;53405;57.012;40.984;2023-07-29T10:52:37;98887.25;;;20.74;87.70
59391;BME280;53405;57.012;40.984;2023-07-29T10:55:41;98891.53;;;20.75;88.28
59391;BME280;53405;57.012;40.984;2023-07-29T10:58:16;98903.00;;;20.86;86.57
59391;BME280;53405;57.012;40.984;2023-07-29T11:00:50;98912.94;;;20.75;86.59
59391;BME280;53405;57.012;40.984;2023-07-29T11:03:18;98916.41;;;20.50;87.63
59391;BME280;53405;57.012;40.984;2023-07-29T11:05:50;98918.03;;;20.26;88.67
59391;BME280;53405;57.012;40.984;2023-07-29T11:13:31;98932.72;;;20.08;89.11
59391;BME280;53405;57.012;40.984;2023-07-29T11:15:59;98931.13;;;20.07;89.16
59391;BME280;53405;57.012;40.984;2023-07-29T11:18:29;98948.25;;;20.06;88.80
59391;BME280;53405;57.012;40.984;2023-07-29T11:20:58;98945.81;;;19.99;88.67
59391;BME280;53405;57.012;40.984;2023-07-29T11:23:36;98943.66;;;19.96;88.88
59391;BME280;53405;57.012;40.984;2023-07-29T11:26:05;98947.38;;;19.90;88.58
59391;BME280;53405;57.012;40.984;2023-07-29T11:28:38;98951.41;;;19.92;88.79
59391;BME280;53405;57.012;40.984;2023-07-29T11:31:06;98946.59;;;19.94;88.55
59391;BME280;53405;57.012;40.984;2023-07-29T11:33:34;98960.50;;;20.01;87.47
59391;BME280;53405;57.012;40.984;2023-07-29T11:36:04;98973.31;;;19.94;88.21
59391;BME280;53405;57.012;40.984;2023-07-29T11:38:31;98965.56;;;19.93;88.31
59391;BME280;53405;57.012;40.984;2023-07-29T11:41:04;98955.41;;;19.90;87.90
59391;BME280;53405;57.012;40.984;2023-07-29T11:43:37;98963.94;;;19.81;88.13
59391;BME280;53405;57.012;40.984;2023-07-29T11:46:05;98970.56;;;19.74;88.36
59391;BME280;53405;57.012;40.984;2023-07-29T11:48:33;98977.84;;;19.83;88.63
59391;BME280;53405;57.012;40.984;2023-07-29T11:51:02;98982.69;;;20.02;87.73
59391;BME280;53405;57.012;40.984;2023-07-29T11:53:30;98980.78;;;19.82;87.28
59391;BME280;53405;57.012;40.984;2023-07-29T11:56:01;98991.63;;;19.60;88.33
59391;BME280;53405;57.012;40.984;2023-07-29T11:58:28;98983.50;;;19.39;89.04
59391;BME280;53405;57.012;40.984;2023-07-29T12:00:56;98970.91;;;19.24;90.59
59391;BME280;53405;57.012;40.984;2023-07-29T12:03:25;98943.19;;;19.25;89.58
59391;BME280;53405;57.012;40.984;2023-07-29T12:05:53;98962.22;;;19.55;88.79
59391;BME280;53405;57.012;40.984;2023-07-29T12:08:21;98947.81;;;19.56;88.51
59391;BME280;53405;57.012;40.984;2023-07-29T12:10:48;98940.59;;;19.46;88.57
59391;BME280;53405;57.012;40.984;2023-07-29T12:13:16;98947.03;;;19.60;88.44
59391;BME280;53405;57.012;40.984;2023-07-29T12:15:44;98937.16;;;19.61;88.46
59391;BME280;53405;57.012;40.984;2023-07-29T12:18:14;98921.91;;;19.56;87.63
59391;BME280;53405;57.012;40.984;2023-07-29T12:20:43;98923.53;;;19.62;87.46
59391;BME280;53405;57.012;40.984;2023-07-29T12:23:10;98916.56;;;19.56;87.48
59391;BME280;53405;57.012;40.984;2023-07-29T12:25:38;98906.69;;;19.46;87.58
59391;BME280;53405;57.012;40.984;2023-07-29T12:28:06;98908.03;;;19.54;87.80
59391;BME280;53405;57.012;40.984;2023-07-29T12:30:34;98907.47;;;19.42;89.12
59391;BME280;53405;57.012;40.984;2023-07-29T12:33:02;98909.13;;;19.58;87.45
59391;BME280;53405;57.012;40.984;2023-07-29T12:35:36;98895.22;;;19.46;87.57
59391;BME280;53405;57.012;40.984;2023-07-29T12:38:05;98907.78;;;19.56;87.73
59391;BME280;53405;57.012;40.984;2023-07-29T12:40:38;98901.13;;;19.63;87.12
59391;BME280;53405;57.012;40.984;2023-07-29T12:43:07;98890.44;;;19.63;87.29
59391;BME280;53405;57.012;40.984;2023-07-29T12:45:37;98901.44;;;19.93;86.71
59391;BME280;53405;57.012;40.984;2023-07-29T12:48:08;98898.25;;;19.96;86.27
59391;BME280;53405;57.012;40.984;2023-07-29T12:50:37;98886.22;;;20.03;87.11
59391;BME280;53405;57.012;40.984;2023-07-29T12:53:06;98878.75;;;20.11;86.97
59391;BME280;53405;57.012;40.984;2023-07-29T12:55:34;98856.03;;;20.24;84.98
59391;BME280;53405;57.012;40.984;2023-07-29T12:58:02;98839.44;;;20.37;83.86
59391;BME280;53405;57.012;40.984;2023-07-29T13:00:30;98856.00;;;20.54;83.26
59391;BME280;53405;57.012;40.984;2023-07-29T13:02:58;98850.63;;;20.49;83.14
59391;BME280;53405;57.012;40.984;2023-07-29T13:05:26;98827.94;;;20.36;83.09
59391;BME280;53405;57.012;40.984;2023-07-29T13:07:53;98821.31;;;20.18;84.97
59391;BME280;53405;57.012;40.984;2023-07-29T13:10:21;98788.97;;;20.04;84.34
59391;BME280;53405;57.012;40.984;2023-07-29T13:12:48;98794.31;;;20.20;83.94
59391;BME280;53405;57.012;40.984;2023-07-29T13:15:16;98808.19;;;20.27;84.56
59391;BME280;53405;57.012;40.984;2023-07-29T13:17:47;98815.03;;;20.59;83.44
59391;BME280;53405;57.012;40.984;2023-07-29T13:20:14;98814.50;;;20.72;82.08